EKBI Airport Information

Runway Information
Runway 09 Length 10172 ft width 148 ft
Elevation 215 ft Threshold 492 ft Heading 87
Runway 27 Length 10172 ft Width 148 ft
Elevation 244 ft Threshold 492 ft Heading 267
Airport Frequencies
Type APP Name APP Frequency 127.575 MHZ
Type ATIS Name ATIS Frequency 118.775 MHZ
Type MISC Name CARGO HAND Frequency 122.075 MHZ
Type MISC Name HANDLING Frequency 130.85 MHZ
Type OPS Name ARPT OFFIC Frequency 131.5 MHZ
Type TWR Name TWR Frequency 119 MHZ
Airport Navaids
Type NDB Name Billund Frequency 341 KHZ
Airport Weather Information & NOTAM
ADDS - METARS form results

(0621 UTC 24 May 2018)
 
METAR text: EKBI 240550Z AUTO 08009KT 9999NDV NCD 17/09 Q1027
Conditions at: EKBI (BILLUND AIRPORT , DK) observed 0550 UTC 24 May 2018
Temperature: 17.0°C (63°F)
Dewpoint: 9.0°C (48°F) [RH = 59%]
Pressure (altimeter): 30.32 inches Hg (1027.0 mb)
Winds: from the E (80 degrees) at 10 MPH (9 knots; 4.7 m/s)
Visibility: missing
Ceiling: at least 12,000 feet AGL
Clouds: sky clear below 12,000 feet AGL
Weather: no significant weather observed at this time